createdAt,value
2023-01-21T00:00:29.775Z,61.90
2023-01-21T00:01:29.949Z,63.50
2023-01-21T00:02:29.813Z,66.30
2023-01-21T00:03:29.794Z,65.90
2023-01-21T00:04:29.735Z,33.20
2023-01-21T00:05:35.725Z,62.50
2023-01-21T00:06:29.807Z,58.20
2023-01-21T00:07:29.690Z,47.40
2023-01-21T00:08:29.676Z,26.79
2023-01-21T00:09:29.671Z,51.50
2023-01-21T00:10:29.691Z,42.79
2023-01-21T00:11:29.860Z,32.59
2023-01-21T00:12:29.693Z,43.70
2023-01-21T00:13:29.635Z,35.59
2023-01-21T00:14:29.635Z,41.09
2023-01-21T00:15:29.704Z,34.90
2023-01-21T00:16:29.604Z,44.70
2023-01-21T00:17:29.653Z,29.00
2023-01-21T00:18:30.222Z,30.79
2023-01-21T00:19:29.580Z,30.70
2023-01-21T00:20:29.567Z,32.79
2023-01-21T00:21:29.571Z,51.20
2023-01-21T00:22:29.533Z,27.60
2023-01-21T00:23:29.848Z,27.70
2023-01-21T00:24:29.522Z,22.10
2023-01-21T00:25:29.517Z,33.79
2023-01-21T00:26:29.496Z,33.50
2023-01-21T00:27:29.481Z,19.89
2023-01-21T00:28:29.703Z,28.29
2023-01-21T00:29:29.469Z,34.50
2023-01-21T00:30:29.466Z,33.50
2023-01-21T00:31:29.557Z,25.10
2023-01-21T00:32:35.444Z,18.89
2023-01-21T00:33:29.426Z,27.10
2023-01-21T00:34:29.448Z,15.10
2023-01-21T00:35:29.411Z,23.10
2023-01-21T00:36:35.421Z,28.79
2023-01-21T00:37:29.388Z,25.39
2023-01-21T00:38:29.372Z,11.19
2023-01-21T00:39:29.367Z,14.39
2023-01-21T00:40:35.585Z,16.29
2023-01-21T00:41:29.349Z,12.80
2023-01-21T00:42:29.349Z,13.60
2023-01-21T00:43:29.346Z,15.30
2023-01-21T00:44:29.321Z,13.10
2023-01-21T00:45:29.310Z,9.80
2023-01-21T00:46:29.373Z,8.89
2023-01-21T00:47:29.318Z,9.39
2023-01-21T00:48:29.288Z,12.00
2023-01-21T00:49:29.477Z,13.00
2023-01-21T00:50:29.255Z,10.19
2023-01-21T00:51:29.270Z,5.80
2023-01-21T00:52:35.261Z,11.60
2023-01-21T00:53:29.233Z,9.69
2023-01-21T00:54:29.211Z,8.19
2023-01-21T00:55:29.211Z,7.90
2023-01-21T00:56:29.187Z,5.40
2023-01-21T00:57:29.238Z,8.39
2023-01-21T00:58:35.176Z,9.10
2023-01-21T00:59:29.180Z,5.90
2023-01-21T01:00:29.154Z,7.09
2023-01-21T01:01:29.173Z,9.10
2023-01-21T01:02:29.171Z,8.60
2023-01-21T01:03:35.246Z,6.90
2023-01-21T01:04:29.115Z,6.30
2023-01-21T01:05:29.094Z,6.00
2023-01-21T01:06:29.111Z,9.10
2023-01-21T01:07:29.077Z,6.19
2023-01-21T01:08:29.083Z,5.40
2023-01-21T01:09:29.073Z,7.40
2023-01-21T01:10:29.050Z,8.60
2023-01-21T01:11:29.046Z,7.69
2023-01-21T01:12:29.037Z,6.40
2023-01-21T01:13:29.017Z,8.50
2023-01-21T01:14:35.031Z,6.09
2023-01-21T01:15:29.011Z,11.50
2023-01-21T01:16:28.995Z,8.30
2023-01-21T01:17:28.988Z,6.50
2023-01-21T01:18:28.975Z,8.19
2023-01-21T01:19:28.977Z,8.30
2023-01-21T01:20:34.959Z,6.00
2023-01-21T01:21:28.941Z,9.30
2023-01-21T01:22:28.941Z,6.69
2023-01-21T01:23:28.919Z,6.90
2023-01-21T01:24:28.908Z,7.90
2023-01-21T01:25:28.912Z,8.80
2023-01-21T01:26:34.937Z,7.90
2023-01-21T01:27:28.901Z,5.80
2023-01-21T01:28:28.880Z,7.59
2023-01-21T01:29:28.860Z,7.80
2023-01-21T01:30:28.890Z,7.80
2023-01-21T01:31:28.917Z,6.09
2023-01-21T01:32:28.841Z,8.19
2023-01-21T01:33:29.019Z,6.19
2023-01-21T01:34:28.821Z,7.19
2023-01-21T01:35:28.836Z,6.00
2023-01-21T01:36:28.790Z,6.69
2023-01-21T01:37:28.788Z,3.79
2023-01-21T01:38:34.813Z,8.30
2023-01-21T01:39:28.779Z,5.69
2023-01-21T01:40:28.744Z,5.59
2023-01-21T01:41:28.966Z,5.50
2023-01-21T01:42:28.716Z,6.69
2023-01-21T01:43:28.712Z,6.80
2023-01-21T01:44:28.710Z,5.40
2023-01-21T01:45:28.703Z,5.90
2023-01-21T01:46:28.749Z,5.30
2023-01-21T01:47:28.895Z,6.00
2023-01-21T01:48:28.669Z,6.40
2023-01-21T01:49:28.666Z,6.50
2023-01-21T01:50:28.670Z,7.19
2023-01-21T01:51:28.653Z,6.00
2023-01-21T01:52:28.640Z,5.80
2023-01-21T01:53:28.607Z,5.80
2023-01-21T01:54:28.643Z,6.50
2023-01-21T01:55:28.593Z,8.30
2023-01-21T01:56:28.603Z,6.80
2023-01-21T01:57:28.788Z,4.00
2023-01-21T01:58:28.566Z,7.80
2023-01-21T01:59:28.552Z,7.59
2023-01-21T02:00:28.542Z,6.30
2023-01-21T02:01:28.573Z,7.00
2023-01-21T02:02:28.577Z,5.80
2023-01-21T02:03:28.536Z,5.90
2023-01-21T02:04:28.525Z,7.09
2023-01-21T02:05:28.500Z,6.69
2023-01-21T02:06:28.583Z,6.80
2023-01-21T02:07:28.510Z,6.09
2023-01-21T02:08:28.489Z,5.50
2023-01-21T02:09:28.462Z,5.50
2023-01-21T02:10:28.475Z,5.59
2023-01-21T02:11:28.433Z,5.50
2023-01-21T02:12:28.433Z,5.69
2023-01-21T02:13:28.415Z,5.19
2023-01-21T02:14:28.399Z,7.80
2023-01-21T02:15:28.393Z,5.80
2023-01-21T02:16:28.425Z,6.50
2023-01-21T02:18:21.253Z,6.09
2023-01-21T02:19:21.270Z,6.59
2023-01-21T02:20:21.251Z,6.50
2023-01-21T02:21:21.228Z,4.50
2023-01-21T02:22:21.223Z,5.59
2023-01-21T02:23:21.251Z,6.09
2023-01-21T02:24:21.204Z,5.50
2023-01-21T02:25:21.189Z,7.19
2023-01-21T02:26:21.187Z,5.90
2023-01-21T02:27:29.998Z,6.80
2023-01-21T02:28:22.407Z,6.50
2023-01-21T02:29:21.146Z,6.30
2023-01-21T02:30:27.361Z,6.00
2023-01-21T02:31:27.660Z,7.50
2023-01-21T02:32:21.113Z,5.30
2023-01-21T02:33:21.118Z,5.90
2023-01-21T02:34:21.114Z,7.80
2023-01-21T02:35:21.094Z,5.40
2023-01-21T02:36:21.104Z,5.59
2023-01-21T02:37:21.071Z,5.00
2023-01-21T02:38:21.076Z,7.09
2023-01-21T02:39:21.076Z,7.30
2023-01-21T02:40:21.038Z,6.09
2023-01-21T02:41:21.033Z,7.50
2023-01-21T02:42:21.019Z,5.90
2023-01-21T02:43:21.015Z,9.10
2023-01-21T02:44:20.992Z,9.19
2023-01-21T02:45:20.990Z,6.09
2023-01-21T02:46:21.018Z,7.09
2023-01-21T02:47:20.976Z,7.59
2023-01-21T02:48:20.987Z,9.60
2023-01-21T02:49:20.949Z,8.60
2023-01-21T02:50:26.948Z,7.40
2023-01-21T02:51:20.968Z,8.89
2023-01-21T02:52:20.995Z,6.40
2023-01-21T02:53:20.909Z,8.10
2023-01-21T02:54:21.043Z,7.40
2023-01-21T02:55:20.916Z,7.50
2023-01-21T02:56:20.876Z,6.40
2023-01-21T02:57:20.878Z,8.60
2023-01-21T02:58:20.865Z,7.80
2023-01-21T02:59:20.866Z,8.19
2023-01-21T03:00:20.908Z,8.10
2023-01-21T03:01:20.822Z,7.59
2023-01-21T03:02:53.637Z,5.90
2023-01-21T03:03:53.614Z,6.69
2023-01-21T03:04:53.654Z,8.69
2023-01-21T03:05:53.591Z,10.50
2023-01-21T03:06:53.612Z,9.39
2023-01-21T03:07:53.773Z,8.10
2023-01-21T03:08:53.582Z,7.80
2023-01-21T03:09:53.552Z,7.90
2023-01-21T03:10:53.783Z,10.50
2023-01-21T03:11:53.535Z,9.00
2023-01-21T03:12:59.538Z,9.10
2023-01-21T03:13:53.512Z,9.00
2023-01-21T03:14:53.528Z,8.80
2023-01-21T03:15:53.985Z,8.30
2023-01-21T03:16:53.483Z,7.69
2023-01-21T03:17:53.476Z,8.10
2023-01-21T03:18:53.457Z,8.69
2023-01-21T03:19:53.462Z,7.09
2023-01-21T03:20:53.463Z,7.30
2023-01-21T03:21:53.506Z,7.30
2023-01-21T03:22:53.431Z,7.00
2023-01-21T03:23:53.433Z,6.80
2023-01-21T03:24:53.418Z,10.69
2023-01-21T03:25:53.398Z,8.19
2023-01-21T03:26:53.554Z,6.00
2023-01-21T03:27:53.366Z,7.59
2023-01-21T03:28:53.364Z,7.50
2023-01-21T03:29:53.378Z,6.00
2023-01-21T03:30:53.440Z,6.69
2023-01-21T03:31:53.472Z,6.69
2023-01-21T03:32:53.327Z,7.40
2023-01-21T03:33:53.319Z,8.30
2023-01-21T03:34:53.298Z,7.40
2023-01-21T03:35:53.301Z,9.00
2023-01-21T03:36:53.275Z,7.19
2023-01-21T03:37:53.266Z,8.50
2023-01-21T03:38:53.457Z,7.69
2023-01-21T03:39:53.247Z,7.69
2023-01-21T03:40:53.239Z,7.69
2023-01-21T03:41:53.222Z,6.30
2023-01-21T03:42:53.439Z,6.90
2023-01-21T03:43:53.202Z,7.90
2023-01-21T03:44:53.189Z,5.90
2023-01-21T03:45:53.231Z,7.59
2023-01-21T03:46:59.188Z,6.69
2023-01-21T03:47:53.166Z,8.80
2023-01-21T03:48:53.157Z,6.40
2023-01-21T03:49:53.145Z,6.69
2023-01-21T03:50:53.201Z,8.30
2023-01-21T03:51:59.143Z,7.19
2023-01-21T03:52:53.185Z,6.40
2023-01-21T03:53:53.103Z,6.50
2023-01-21T03:54:53.168Z,5.69
2023-01-21T03:55:53.077Z,6.40
2023-01-21T03:56:53.074Z,7.00
2023-01-21T03:57:53.062Z,7.09
2023-01-21T03:58:59.101Z,6.19
2023-01-21T03:59:53.036Z,6.19
2023-01-21T04:00:53.041Z,7.09
2023-01-21T04:01:53.065Z,5.90
2023-01-21T04:02:53.020Z,6.50
2023-01-21T04:03:53.004Z,6.80
2023-01-21T04:04:52.997Z,6.40
2023-01-21T04:05:53.044Z,6.09
2023-01-21T04:06:53.171Z,8.60
2023-01-21T04:07:52.968Z,7.00
2023-01-21T04:08:52.943Z,5.69
2023-01-21T04:09:52.946Z,6.09
2023-01-21T04:10:52.924Z,5.30
2023-01-21T04:11:52.917Z,7.30
2023-01-21T04:12:53.136Z,5.30
2023-01-21T04:13:52.902Z,5.50
2023-01-21T04:14:52.922Z,5.00
2023-01-21T04:15:53.095Z,4.59
2023-01-21T04:16:52.868Z,4.90
2023-01-21T04:17:52.868Z,6.40
2023-01-21T04:18:52.861Z,6.30
2023-01-21T04:19:53.048Z,6.80
2023-01-21T04:20:52.959Z,5.59
2023-01-21T04:21:52.818Z,5.40
2023-01-21T04:22:52.802Z,6.40
2023-01-21T04:23:52.830Z,4.69
2023-01-21T04:24:52.795Z,6.09
2023-01-21T04:25:52.772Z,5.30
2023-01-21T04:26:52.777Z,5.80
2023-01-21T04:27:52.780Z,5.59
2023-01-21T04:28:52.755Z,5.00
2023-01-21T04:29:52.754Z,4.30
2023-01-21T04:30:53.000Z,5.19
2023-01-21T04:31:52.752Z,5.50
2023-01-21T04:32:52.707Z,5.00
2023-01-21T04:33:52.710Z,5.59
2023-01-21T04:34:52.698Z,5.09
2023-01-21T04:35:58.708Z,6.19
2023-01-21T04:36:52.681Z,5.19
2023-01-21T04:37:52.685Z,5.69
2023-01-21T04:38:52.653Z,4.59
2023-01-21T04:39:52.638Z,5.30
2023-01-21T04:40:52.719Z,5.09
2023-01-21T04:41:52.613Z,4.80
2023-01-21T04:42:52.615Z,5.40
2023-01-21T04:43:52.632Z,6.30
2023-01-21T04:44:58.605Z,6.50
2023-01-21T04:45:52.635Z,5.59
2023-01-21T04:46:52.577Z,4.80
2023-01-21T04:47:52.548Z,4.30
2023-01-21T04:48:52.561Z,6.00
2023-01-21T04:49:52.567Z,6.00
2023-01-21T04:50:52.572Z,5.09
2023-01-21T04:51:52.642Z,4.09
2023-01-21T04:52:58.526Z,4.40
2023-01-21T04:53:52.499Z,5.50
2023-01-21T04:54:52.495Z,5.69
2023-01-21T04:55:52.668Z,4.69
2023-01-21T04:56:52.519Z,4.40
2023-01-21T04:57:52.469Z,5.50
2023-01-21T04:58:52.437Z,4.50
2023-01-21T04:59:52.431Z,4.80
2023-01-21T05:00:52.528Z,4.50
2023-01-21T05:01:52.407Z,4.50
2023-01-21T05:02:52.420Z,4.69
2023-01-21T05:03:52.398Z,5.00
2023-01-21T05:04:52.388Z,4.59
2023-01-21T05:05:52.384Z,4.80
2023-01-21T05:06:58.571Z,5.50
2023-01-21T05:07:52.559Z,5.59
2023-01-21T05:08:52.354Z,6.09
2023-01-21T05:09:52.325Z,4.80
2023-01-21T05:10:52.329Z,5.09
2023-01-21T05:11:52.305Z,3.29
2023-01-21T05:12:52.493Z,4.30
2023-01-21T05:13:52.281Z,4.19
2023-01-21T05:14:52.289Z,3.59
2023-01-21T05:15:52.264Z,5.19
2023-01-21T05:16:52.424Z,3.20
2023-01-21T05:17:52.241Z,5.69
2023-01-21T05:18:52.290Z,5.09
2023-01-21T05:19:52.238Z,5.30
2023-01-21T05:20:52.429Z,3.40
2023-01-21T05:21:52.311Z,3.40
2023-01-21T05:22:52.191Z,3.79
2023-01-21T05:23:52.181Z,3.59
2023-01-21T05:24:52.179Z,4.59
2023-01-21T05:25:52.166Z,3.90
2023-01-21T05:26:52.204Z,3.70
2023-01-21T05:27:52.137Z,3.20
2023-01-21T05:28:52.128Z,3.50
2023-01-21T05:29:52.128Z,2.70
2023-01-21T05:30:52.176Z,3.59
2023-01-21T05:31:52.190Z,4.90
2023-01-21T05:32:52.106Z,4.90
2023-01-21T05:33:52.074Z,4.40
2023-01-21T05:34:52.101Z,3.90
2023-01-21T05:35:58.065Z,2.50
2023-01-21T05:36:52.061Z,3.79
2023-01-21T05:37:52.200Z,2.70
2023-01-21T05:38:52.036Z,2.40
2023-01-21T05:39:52.033Z,3.20
2023-01-21T05:40:52.006Z,2.90
2023-01-21T05:41:52.013Z,2.79
2023-01-21T05:42:52.005Z,2.00
2023-01-21T05:43:51.988Z,2.09
2023-01-21T05:44:51.979Z,2.00
2023-01-21T05:45:51.975Z,2.59
2023-01-21T05:46:51.950Z,2.40
2023-01-21T05:47:51.938Z,3.20
2023-01-21T05:48:51.996Z,2.79
2023-01-21T05:49:51.917Z,3.90
2023-01-21T05:50:52.048Z,2.79
2023-01-21T05:51:51.900Z,3.20
2023-01-21T05:52:52.085Z,3.20
2023-01-21T05:53:51.894Z,2.70
2023-01-21T05:55:01.486Z,2.79
2023-01-21T05:55:52.907Z,3.09
2023-01-21T05:56:57.858Z,3.29
2023-01-21T05:57:51.843Z,3.40
2023-01-21T05:58:51.827Z,4.69
2023-01-21T05:59:51.822Z,3.79
2023-01-21T06:00:51.850Z,4.00
2023-01-21T06:01:57.806Z,3.79
2023-01-21T06:02:51.778Z,3.50
2023-01-21T06:03:51.881Z,2.40
2023-01-21T06:04:57.781Z,4.59
2023-01-21T06:05:51.761Z,5.00
2023-01-21T06:06:51.775Z,3.50
2023-01-21T06:07:51.738Z,5.59
2023-01-21T06:08:51.829Z,3.50
2023-01-21T06:09:51.713Z,3.50
2023-01-21T06:10:51.700Z,3.70
2023-01-21T06:11:51.700Z,3.59
2023-01-21T06:12:51.678Z,4.09
2023-01-21T06:13:51.682Z,3.70
2023-01-21T06:14:51.670Z,4.40
2023-01-21T06:15:51.717Z,3.59
2023-01-21T06:16:57.863Z,2.29
2023-01-21T06:17:51.647Z,2.50
2023-01-21T06:18:51.647Z,3.40
2023-01-21T06:19:51.617Z,3.70
2023-01-21T06:20:51.657Z,3.20
2023-01-21T06:21:51.600Z,4.59
2023-01-21T06:22:51.608Z,3.50
2023-01-21T06:23:51.572Z,2.79
2023-01-21T06:24:53.630Z,3.40
2023-01-21T06:25:51.549Z,3.09
2023-01-21T06:26:51.555Z,2.00
2023-01-21T06:27:51.549Z,3.29
2023-01-21T06:28:51.520Z,4.00
2023-01-21T06:29:51.510Z,3.00
2023-01-21T06:30:51.634Z,3.00
2023-01-21T06:31:51.694Z,4.19
2023-01-21T06:32:51.496Z,4.50
2023-01-21T06:33:51.469Z,2.70
2023-01-21T06:34:51.464Z,3.90
2023-01-21T06:35:51.452Z,3.50
2023-01-21T06:36:51.441Z,5.19
2023-01-21T06:37:51.443Z,3.79
2023-01-21T06:38:51.548Z,4.00
2023-01-21T06:39:51.433Z,2.70
2023-01-21T06:40:51.414Z,4.80
2023-01-21T06:41:53.587Z,4.19
2023-01-21T06:42:51.323Z,3.79
2023-01-21T06:43:51.374Z,3.09
2023-01-21T06:44:51.533Z,3.20
2023-01-21T06:45:51.297Z,3.50
2023-01-21T06:47:00.145Z,5.30
2023-01-21T06:47:52.324Z,3.09
2023-01-21T06:48:51.362Z,4.50
2023-01-21T06:49:51.501Z,5.30
2023-01-21T06:50:51.286Z,4.30
2023-01-21T06:51:51.223Z,7.09
2023-01-21T06:52:51.231Z,8.89
2023-01-21T06:53:51.254Z,5.19
2023-01-21T06:54:51.218Z,5.40
2023-01-21T06:55:51.194Z,5.09
2023-01-21T06:56:51.172Z,5.69
2023-01-21T06:57:51.177Z,3.40
2023-01-21T06:58:51.212Z,4.40
2023-01-21T06:59:51.149Z,5.19
2023-01-21T07:00:51.152Z,4.30
2023-01-21T07:01:51.272Z,4.00
2023-01-21T07:02:51.142Z,6.19
2023-01-21T07:03:51.125Z,4.00
2023-01-21T07:04:51.217Z,3.90
2023-01-21T07:05:51.082Z,5.69
2023-01-21T07:06:51.076Z,5.00
2023-01-21T07:07:51.074Z,3.90
2023-01-21T07:08:51.054Z,7.19
2023-01-21T07:09:51.053Z,3.90
2023-01-21T07:10:51.071Z,4.30
2023-01-21T07:11:57.033Z,6.69
2023-01-21T07:12:51.223Z,4.00
2023-01-21T07:13:51.002Z,5.30
2023-01-21T07:14:57.038Z,6.50
2023-01-21T07:15:51.018Z,7.19
2023-01-21T07:16:50.973Z,7.19
2023-01-21T07:17:50.966Z,7.30
2023-01-21T07:18:50.966Z,5.19
2023-01-21T07:19:51.004Z,6.59
2023-01-21T07:20:50.947Z,6.59
2023-01-21T07:21:50.938Z,7.09
2023-01-21T07:22:50.924Z,5.69
2023-01-21T07:23:50.907Z,5.80
2023-01-21T07:24:50.993Z,9.19
2023-01-21T07:25:50.894Z,6.80
2023-01-21T07:26:50.992Z,6.09
2023-01-21T07:27:50.872Z,6.50
2023-01-21T07:28:50.874Z,7.80
2023-01-21T07:29:50.845Z,8.60
2023-01-21T07:30:56.882Z,8.89
2023-01-21T07:31:50.886Z,7.69
2023-01-21T07:32:50.817Z,6.90
2023-01-21T07:33:50.808Z,7.30
2023-01-21T07:34:50.894Z,8.39
2023-01-21T07:35:50.786Z,7.80
2023-01-21T07:36:50.770Z,6.90
2023-01-21T07:37:50.769Z,7.50
2023-01-21T07:38:50.759Z,8.00
2023-01-21T07:39:52.224Z,6.80
2023-01-21T07:40:50.739Z,8.30
2023-01-21T07:41:50.726Z,6.90
2023-01-21T07:42:50.740Z,7.09
2023-01-21T07:43:50.699Z,7.50
2023-01-21T07:44:50.796Z,7.30
2023-01-21T07:45:50.702Z,8.89
2023-01-21T07:46:50.767Z,10.00
2023-01-21T07:47:50.882Z,10.19
2023-01-21T07:48:50.654Z,9.69
2023-01-21T07:49:56.677Z,9.69
2023-01-21T07:50:50.719Z,8.19
2023-01-21T07:51:50.622Z,7.50
2023-01-21T07:52:50.615Z,8.19
2023-01-21T07:53:50.622Z,7.00
2023-01-21T07:54:56.639Z,7.40
2023-01-21T07:55:50.582Z,8.30
2023-01-21T07:56:50.575Z,9.50
2023-01-21T07:57:50.576Z,8.69
2023-01-21T07:58:50.572Z,7.30
2023-01-21T07:59:50.853Z,12.39
2023-01-21T08:00:50.530Z,23.10
2023-01-21T08:01:50.636Z,46.29
2023-01-21T08:02:50.562Z,16.50
2023-01-21T08:03:50.504Z,21.79
2023-01-21T08:04:50.491Z,11.50
2023-01-21T08:05:50.480Z,11.30
2023-01-21T08:06:50.470Z,21.20
2023-01-21T08:07:50.459Z,58.00
2023-01-21T08:08:56.473Z,25.29
2023-01-21T08:09:50.433Z,74.09
2023-01-21T08:10:50.427Z,56.40
2023-01-21T08:11:50.421Z,44.00
2023-01-21T08:12:50.412Z,22.60
2023-01-21T08:13:50.407Z,23.39
2023-01-21T08:14:50.513Z,16.70
2023-01-21T08:15:50.378Z,9.00
2023-01-21T08:16:50.390Z,10.00
2023-01-21T08:17:50.356Z,12.10
2023-01-21T08:18:50.354Z,12.30
2023-01-21T08:19:50.343Z,11.19
2023-01-21T08:20:50.359Z,11.19
2023-01-21T08:21:50.313Z,11.80
2023-01-21T08:22:50.317Z,11.10
2023-01-21T08:23:50.305Z,12.30
2023-01-21T08:24:50.285Z,11.80
2023-01-21T08:25:50.320Z,10.60
2023-01-21T08:26:50.266Z,10.10
2023-01-21T08:27:50.258Z,12.50
2023-01-21T08:28:50.249Z,11.39
2023-01-21T08:29:50.331Z,14.00
2023-01-21T08:30:50.300Z,12.00
2023-01-21T08:31:50.273Z,11.10
2023-01-21T08:32:50.201Z,9.00
2023-01-21T08:33:50.205Z,10.39
2023-01-21T08:34:50.187Z,13.00
2023-01-21T08:35:50.186Z,13.10
2023-01-21T08:36:50.167Z,14.19
2023-01-21T08:37:50.165Z,12.80
2023-01-21T08:38:50.146Z,12.89
2023-01-21T08:39:50.333Z,15.10
2023-01-21T08:40:50.129Z,13.80
2023-01-21T08:41:50.110Z,15.19
2023-01-21T08:42:50.112Z,13.60
2023-01-21T08:43:50.094Z,14.89
2023-01-21T08:44:50.089Z,10.80
2023-01-21T08:45:50.129Z,14.60
2023-01-21T08:46:50.102Z,12.19
2023-01-21T08:47:50.048Z,10.10
2023-01-21T08:48:50.043Z,15.60
2023-01-21T08:49:56.046Z,12.10
2023-01-21T08:50:50.217Z,10.39
2023-01-21T08:51:50.006Z,13.10
2023-01-21T08:52:50.008Z,13.80
2023-01-21T08:53:50.199Z,14.19
2023-01-21T08:54:50.941Z,14.10
2023-01-21T08:55:49.971Z,13.50
2023-01-21T08:56:49.968Z,12.00
2023-01-21T08:57:49.951Z,10.80
2023-01-21T08:58:49.936Z,9.19
2023-01-21T08:59:49.932Z,11.50
2023-01-21T09:00:49.973Z,12.50
2023-01-21T09:01:49.950Z,12.89
2023-01-21T09:02:51.615Z,13.00
2023-01-21T09:03:55.885Z,12.69
2023-01-21T09:04:49.875Z,8.89
2023-01-21T09:05:49.880Z,16.20
2023-01-21T09:06:49.962Z,14.00
2023-01-21T09:07:49.865Z,14.50
2023-01-21T09:08:49.833Z,15.10
2023-01-21T09:09:49.838Z,15.19
2023-01-21T09:10:49.812Z,13.19
2023-01-21T09:11:49.803Z,24.29
2023-01-21T09:12:50.013Z,20.10
2023-01-21T09:13:49.787Z,20.70
2023-01-21T09:14:49.774Z,13.69
2023-01-21T09:15:49.759Z,13.30
2023-01-21T09:16:49.829Z,17.00
2023-01-21T09:17:49.748Z,12.60
2023-01-21T09:18:49.754Z,7.90
2023-01-21T09:19:49.728Z,12.80
2023-01-21T09:20:49.734Z,11.50
2023-01-21T09:21:49.750Z,12.39
2023-01-21T09:22:49.703Z,10.19
2023-01-21T09:23:49.667Z,12.30
2023-01-21T09:24:49.664Z,11.39
2023-01-21T09:25:55.669Z,10.00
2023-01-21T09:26:49.649Z,13.30
2023-01-21T09:27:49.636Z,13.69
2023-01-21T09:28:49.621Z,17.00
2023-01-21T09:29:49.616Z,9.69
2023-01-21T09:30:49.634Z,17.20
2023-01-21T09:31:49.662Z,18.29
2023-01-21T09:32:49.595Z,13.00
2023-01-21T09:33:49.574Z,11.69
2023-01-21T09:34:55.610Z,15.39
2023-01-21T09:35:49.789Z,15.10
2023-01-21T09:36:49.547Z,12.39
2023-01-21T09:37:49.525Z,10.10
2023-01-21T09:38:49.514Z,10.69
2023-01-21T09:39:49.718Z,11.60
2023-01-21T09:40:49.540Z,12.10
2023-01-21T09:41:49.491Z,10.00
2023-01-21T09:42:49.463Z,10.50
2023-01-21T09:43:49.469Z,8.69
2023-01-21T09:44:49.449Z,9.60
2023-01-21T09:45:49.515Z,11.19
2023-01-21T09:46:49.428Z,10.50
2023-01-21T09:47:49.414Z,8.80
2023-01-21T09:48:49.428Z,9.30
2023-01-21T09:49:49.400Z,7.59
2023-01-21T09:50:49.410Z,8.19
2023-01-21T09:51:52.281Z,7.69
2023-01-21T09:52:49.359Z,7.40
2023-01-21T09:53:49.349Z,8.50
2023-01-21T09:54:55.392Z,10.80
2023-01-21T09:55:49.335Z,16.50
2023-01-21T09:56:49.323Z,11.10
2023-01-21T09:57:49.320Z,20.00
2023-01-21T09:58:55.327Z,14.69
2023-01-21T09:59:49.282Z,13.00
2023-01-21T10:00:49.405Z,24.10
2023-01-21T10:01:49.270Z,12.10
2023-01-21T10:02:49.267Z,11.80
2023-01-21T10:03:49.257Z,29.79
2023-01-21T10:04:49.301Z,15.10
2023-01-21T10:05:49.214Z,22.20
2023-01-21T10:06:49.233Z,13.80
2023-01-21T10:07:49.197Z,17.70
2023-01-21T10:08:49.192Z,28.70
2023-01-21T10:09:55.187Z,35.59
2023-01-21T10:10:49.212Z,24.60
2023-01-21T10:11:55.158Z,35.59
2023-01-21T10:12:55.151Z,40.90
2023-01-21T10:13:49.141Z,59.70
2023-01-21T10:14:55.409Z,51.29
2023-01-21T10:15:49.111Z,39.79
2023-01-21T10:16:55.189Z,39.20
2023-01-21T10:17:49.087Z,26.29
2023-01-21T10:18:49.079Z,20.29
2023-01-21T10:19:49.080Z,30.70
2023-01-21T10:20:49.057Z,25.60
2023-01-21T10:21:49.051Z,41.40
2023-01-21T10:22:55.068Z,26.70
2023-01-21T10:23:55.028Z,18.89
2023-01-21T10:24:49.017Z,11.89
2023-01-21T10:25:49.009Z,14.19
2023-01-21T10:26:48.993Z,11.00
2023-01-21T10:27:48.977Z,13.89
2023-01-21T10:28:48.982Z,11.39
2023-01-21T10:29:48.951Z,10.10
2023-01-21T10:30:49.167Z,9.30
2023-01-21T10:31:49.123Z,8.30
2023-01-21T10:32:54.932Z,10.10
2023-01-21T10:33:48.923Z,9.39
2023-01-21T10:34:48.909Z,8.19
2023-01-21T10:35:49.103Z,9.00
2023-01-21T10:36:49.927Z,9.50
2023-01-21T10:37:49.079Z,8.39
2023-01-21T10:38:48.878Z,7.50
2023-01-21T10:39:48.844Z,8.30
2023-01-21T10:40:48.843Z,6.59
2023-01-21T10:41:48.835Z,9.10
2023-01-21T10:42:54.834Z,8.39
2023-01-21T10:43:48.806Z,10.00
2023-01-21T10:44:54.809Z,7.80
2023-01-21T10:45:48.869Z,8.10
2023-01-21T10:46:48.793Z,7.90
2023-01-21T10:47:54.774Z,9.69
2023-01-21T10:48:48.955Z,8.80
2023-01-21T10:49:48.743Z,8.39
2023-01-21T10:50:48.827Z,9.60
2023-01-21T10:51:48.720Z,7.09
2023-01-21T10:52:48.711Z,8.30
2023-01-21T10:53:48.904Z,6.50
2023-01-21T10:54:48.738Z,6.30
2023-01-21T10:55:48.671Z,7.80
2023-01-21T10:56:48.687Z,8.89
2023-01-21T10:57:48.656Z,8.50
2023-01-21T10:58:48.651Z,6.90
2023-01-21T10:59:48.661Z,8.60
2023-01-21T11:00:48.642Z,7.80
2023-01-21T11:01:48.623Z,7.69
2023-01-21T11:02:48.713Z,8.00
2023-01-21T11:03:48.592Z,8.69
2023-01-21T11:04:48.593Z,9.19
2023-01-21T11:05:50.046Z,7.90
2023-01-21T11:06:48.566Z,8.19
2023-01-21T11:07:48.562Z,7.69
2023-01-21T11:08:48.572Z,7.19
2023-01-21T11:09:48.540Z,8.39
2023-01-21T11:10:48.552Z,9.60
2023-01-21T11:11:48.510Z,9.39
2023-01-21T11:12:48.511Z,8.89
2023-01-21T11:13:48.479Z,8.19
2023-01-21T11:14:48.493Z,8.10
2023-01-21T11:15:48.519Z,11.50
2023-01-21T11:16:48.481Z,9.60
2023-01-21T11:17:48.449Z,8.30
2023-01-21T11:18:48.435Z,11.39
2023-01-21T11:19:48.431Z,9.00
2023-01-21T11:20:48.411Z,8.39
2023-01-21T11:21:48.411Z,8.80
2023-01-21T11:22:48.386Z,8.80
2023-01-21T11:23:48.377Z,9.00
2023-01-21T11:24:48.372Z,10.60
2023-01-21T11:25:48.361Z,7.90
2023-01-21T11:26:48.372Z,9.19
2023-01-21T11:27:48.428Z,10.80
2023-01-21T11:28:54.329Z,8.60
2023-01-21T11:29:48.331Z,8.89
2023-01-21T11:30:51.426Z,9.19
2023-01-21T11:31:48.465Z,9.80
2023-01-21T11:32:48.279Z,9.19
2023-01-21T11:33:48.268Z,10.10
2023-01-21T11:34:48.269Z,9.19
2023-01-21T11:35:48.253Z,9.00
2023-01-21T11:36:48.248Z,9.89
2023-01-21T11:37:48.231Z,9.10
2023-01-21T11:38:48.214Z,8.89
2023-01-21T11:39:48.206Z,10.00
2023-01-21T11:40:48.198Z,9.39
2023-01-21T11:41:48.200Z,10.39
2023-01-21T11:43:36.992Z,8.60
2023-01-21T11:44:37.146Z,8.19
2023-01-21T11:45:36.945Z,9.50
2023-01-21T11:46:36.914Z,9.39
2023-01-21T11:47:36.915Z,9.69
2023-01-21T11:48:36.990Z,10.19
2023-01-21T11:49:36.896Z,8.69
2023-01-21T11:50:36.884Z,10.50
2023-01-21T11:51:36.872Z,13.30
2023-01-21T11:52:37.054Z,11.30
2023-01-21T11:53:36.846Z,9.10
2023-01-21T11:54:36.847Z,11.39
2023-01-21T11:55:37.226Z,11.89
2023-01-21T11:56:36.833Z,12.10
2023-01-21T11:57:36.798Z,9.89
2023-01-21T11:58:36.830Z,8.89
2023-01-21T11:59:43.021Z,11.10
2023-01-21T12:00:42.782Z,11.30
2023-01-21T12:01:36.763Z,11.30
2023-01-21T12:02:37.031Z,9.69
2023-01-21T12:03:36.772Z,13.19
2023-01-21T12:04:36.728Z,9.69
2023-01-21T12:05:36.724Z,9.50
2023-01-21T12:06:37.081Z,11.30
2023-01-21T12:07:36.696Z,10.50
2023-01-21T12:08:42.709Z,11.80
2023-01-21T12:09:36.684Z,9.50
2023-01-21T12:10:36.679Z,9.10
2023-01-21T12:11:36.667Z,11.50
2023-01-21T12:12:36.642Z,7.59
2023-01-21T12:13:42.649Z,9.39
2023-01-21T12:14:36.628Z,9.30
2023-01-21T12:15:36.721Z,11.50
2023-01-21T12:16:36.620Z,10.39
2023-01-21T12:17:39.769Z,8.69
2023-01-21T12:18:36.801Z,9.00
2023-01-21T12:19:36.573Z,9.30
2023-01-21T12:20:36.570Z,9.50
2023-01-21T12:21:36.551Z,11.89
2023-01-21T12:22:36.549Z,9.10
2023-01-21T12:23:36.539Z,12.39
2023-01-21T12:24:36.521Z,11.89
2023-01-21T12:25:36.535Z,11.89
2023-01-21T12:26:36.506Z,12.30
2023-01-21T12:27:36.703Z,12.89
2023-01-21T12:28:36.691Z,11.80
2023-01-21T12:29:36.471Z,14.69
2023-01-21T12:30:36.495Z,12.30
2023-01-21T12:31:36.527Z,11.69
2023-01-21T12:32:42.453Z,9.60
2023-01-21T12:33:36.424Z,9.89
2023-01-21T12:34:36.421Z,10.50
2023-01-21T12:35:42.410Z,10.39
2023-01-21T12:36:36.407Z,11.30
2023-01-21T12:37:36.415Z,11.60
2023-01-21T12:38:36.374Z,16.50
2023-01-21T12:39:36.415Z,20.79
2023-01-21T12:40:36.563Z,21.50
2023-01-21T12:41:36.348Z,20.79
2023-01-21T12:42:36.333Z,20.60
2023-01-21T12:43:36.341Z,14.39
2023-01-21T12:44:36.372Z,21.39
2023-01-21T12:45:36.297Z,21.39
2023-01-21T12:46:38.486Z,20.00
2023-01-21T12:47:36.290Z,26.50
2023-01-21T12:48:36.276Z,25.70
2023-01-21T12:49:36.268Z,26.79
2023-01-21T12:50:36.252Z,30.29
2023-01-21T12:51:36.462Z,24.70
2023-01-21T12:52:36.229Z,23.79
2023-01-21T12:53:36.240Z,24.20
2023-01-21T12:54:36.222Z,21.39
2023-01-21T12:55:36.743Z,14.10
2023-01-21T12:56:36.182Z,12.50
2023-01-21T12:57:36.380Z,13.60
2023-01-21T12:58:36.176Z,11.19
2023-01-21T12:59:36.152Z,11.19
2023-01-21T13:00:36.218Z,12.00
2023-01-21T13:01:36.264Z,10.69
2023-01-21T13:02:36.155Z,9.89
2023-01-21T13:03:36.128Z,12.00
2023-01-21T13:04:42.112Z,7.69
2023-01-21T13:05:36.097Z,12.69
2023-01-21T13:06:52.316Z,13.30
2023-01-21T13:07:37.132Z,11.00
2023-01-21T13:08:36.069Z,11.19
2023-01-21T13:09:36.066Z,8.50
2023-01-21T13:10:36.050Z,9.10
2023-01-21T13:11:36.038Z,10.60